Time;durP1;ratioP1;P1;durP2;ratioP2;P2;SDS_P1;SDS_P2;PMS_P1;PMS_P2;Temp;Humidity;BMP_temperature;BMP_pressure;BME280_temperature;BME280_humidity;BME280_pressure;Samples;Min_cycle;Max_cycle;Signal;HPM_P1;HPM_P2
2022/07/03 00:01:56;;;;;;;;;1.50;1.50;;;;;21.05;42.91;101555.56;5096126;27;45634;-46
2022/07/03 00:04:22;;;;;;;;;3.75;2.00;;;;;21.02;42.92;101553.22;5096102;27;45424;-51
2022/07/03 00:06:47;;;;;;;;;3.00;3.00;;;;;21.02;42.59;101549.69;5095766;27;46909;-47
2022/07/03 00:09:13;;;;;;;;;2.50;2.50;;;;;21.01;42.68;101539.91;5096216;27;45520;-45
2022/07/03 00:11:39;;;;;;;;;3.00;1.00;;;;;21.00;42.99;101546.38;5095859;27;45414;-45
2022/07/03 00:14:04;;;;;;;;;3.50;2.00;;;;;20.97;43.22;101538.63;5096038;27;45493;-52
2022/07/03 00:16:30;;;;;;;;;2.25;1.75;;;;;20.97;43.22;101542.16;5095785;27;45922;-48
2022/07/03 00:18:55;;;;;;;;;1.00;1.00;;;;;20.95;42.59;101536.13;5095635;27;45788;-48
2022/07/03 00:21:31;;;;;;;;;2.00;2.00;;;;;20.87;43.01;101529.00;5095125;27;45379;-45
2022/07/03 00:24:07;;;;;;;;;2.00;2.00;;;;;20.92;43.33;101539.22;5096016;27;45436;-47
2022/07/03 00:26:35;;;;;;;;;3.75;2.00;;;;;20.87;43.44;101534.41;5095263;27;46393;-49
2022/07/03 00:29:02;;;;;;;;;3.25;2.00;;;;;20.92;43.69;101541.94;5094896;27;45454;-47
2022/07/03 00:31:30;;;;;;;;;3.00;3.00;;;;;20.90;43.92;101547.53;5095994;27;45403;-55
2022/07/03 00:33:58;;;;;;;;;3.00;2.75;;;;;20.88;43.15;101546.06;5095580;27;45374;-51
2022/07/03 00:36:35;;;;;;;;;2.50;2.50;;;;;20.83;43.30;101543.94;5096452;27;46425;-49
2022/07/03 00:39:01;;;;;;;;;3.00;2.00;;;;;20.75;43.24;101530.56;5095705;27;45575;-54
2022/07/03 00:41:29;;;;;;;;;1.50;1.50;;;;;20.75;43.25;101530.56;5095907;27;45455;-48
2022/07/03 00:43:55;;;;;;;;;1.00;1.00;;;;;20.71;42.92;101528.44;5095493;27;45510;-55
2022/07/03 00:46:23;;;;;;;;;3.00;1.25;;;;;20.66;42.85;101529.84;5094982;27;46371;-52
2022/07/03 00:48:50;;;;;;;;;3.50;2.00;;;;;20.63;42.70;101546.44;5095696;27;45470;-49
2022/07/03 00:51:20;;;;;;;;;2.25;1.50;;;;;20.61;42.72;101545.81;5095055;27;45420;-45
2022/07/03 00:53:46;;;;;;;;;3.50;2.00;;;;;20.58;42.91;101539.97;5095750;27;45442;-49
2022/07/03 00:56:13;;;;;;;;;3.00;2.00;;;;;20.55;43.13;101546.56;5095131;27;46066;-49
2022/07/03 00:58:40;;;;;;;;;3.00;1.25;;;;;20.53;43.25;101548.66;5095042;27;45587;-50
2022/07/03 01:01:06;;;;;;;;;1.00;1.00;;;;;20.53;43.07;101545.94;5095442;27;45575;-55
2022/07/03 01:03:39;;;;;;;;;2.00;2.00;;;;;20.52;43.17;101552.38;5095651;27;45437;-47
2022/07/03 01:06:12;;;;;;;;;5.00;2.00;;;;;20.47;43.08;101546.66;5094861;27;46325;-44
2022/07/03 01:08:45;;;;;;;;;2.25;2.25;;;;;20.48;42.99;101542.09;5095769;27;45889;-47
2022/07/03 01:11:18;;;;;;;;;3.25;1.50;;;;;20.45;43.17;101543.34;5095627;27;45477;-45
2022/07/03 01:13:53;;;;;;;;;1.00;1.00;;;;;20.38;43.20;101545.13;5094929;27;45331;-48
2022/07/03 01:16:26;;;;;;;;;1.50;1.50;;;;;20.40;43.33;101548.47;5094857;27;46212;-45
2022/07/03 01:19:19;;;;;;;;;3.00;1.00;;;;;20.37;43.38;101552.41;5095208;27;45339;-49
2022/07/03 01:22:06;;;;;;;;;1.00;1.00;;;;;20.34;42.66;101557.34;5091200;27;45438;-46
2022/07/03 01:25:09;;;;;;;;;3.50;1.00;;;;;20.32;43.17;101551.31;5095417;27;45420;-45
2022/07/03 01:28:00;;;;;;;;;1.00;1.00;;;;;20.17;43.18;101535.97;5094668;27;47100;-46
2022/07/03 01:30:28;;;;;;;;;3.25;2.75;;;;;20.26;43.22;101560.16;5094717;27;45395;-47
2022/07/03 01:33:05;;;;;;;;;1.00;1.00;;;;;20.24;43.52;101554.97;5094607;27;45867;-49
2022/07/03 01:35:37;;;;;;;;;1.00;1.00;;;;;20.20;42.87;101553.66;5095395;27;45412;-48
2022/07/03 01:38:13;;;;;;;;;1.00;1.00;;;;;19.78;42.80;101490.41;5094351;27;46394;-54
2022/07/03 01:40:41;;;;;;;;;1.00;1.00;;;;;20.14;42.30;101549.00;5095143;27;45510;-54
2022/07/03 01:43:10;;;;;;;;;1.75;1.75;;;;;20.10;42.92;101550.41;5094550;27;45456;-45
2022/07/03 01:45:43;;;;;;;;;1.00;1.00;;;;;20.09;42.96;101543.34;5094944;27;45522;-53
2022/07/03 01:48:10;;;;;;;;;2.00;1.00;;;;;20.07;43.09;101548.09;5094658;27;45972;-51
2022/07/03 01:50:37;;;;;;;;;1.00;1.00;;;;;20.07;42.88;101557.03;5094672;27;45393;-47
2022/07/03 01:53:05;;;;;;;;;1.25;1.00;;;;;20.02;43.07;101554.09;5094658;27;45679;-47
2022/07/03 01:55:33;;;;;;;;;1.25;1.25;;;;;20.00;42.91;101552.59;5094718;27;45472;-45
2022/07/03 01:57:59;;;;;;;;;0.75;0.75;;;;;19.97;43.58;101553.78;5094274;27;46204;-47
2022/07/03 02:00:24;;;;;;;;;1.00;1.00;;;;;19.94;43.64;101546.09;5094180;27;45454;-45
2022/07/03 02:03:04;;;;;;;;;0.25;0.25;;;;;19.88;43.35;101544.13;5094780;27;45723;-45
2022/07/03 02:05:44;;;;;;;;;2.00;1.00;;;;;19.86;43.58;101547.03;5094901;27;45502;-57
2022/07/03 02:08:35;;;;;;;;;0.50;0.00;;;;;19.85;43.73;101547.22;5094324;27;46201;-55
2022/07/03 02:11:16;;;;;;;;;1.00;1.00;;;;;19.80;43.34;101545.06;5094001;27;45441;-55
2022/07/03 02:14:08;;;;;;;;;1.00;1.00;;;;;19.77;43.95;101540.06;5094315;27;45470;-52
2022/07/03 02:16:49;;;;;;;;;0.00;0.00;;;;;19.72;43.87;101544.31;5051236;28;45543;-56
2022/07/03 02:19:15;;;;;;;;;0.25;0.25;;;;;19.69;44.49;101546.38;5051355;28;46465;-55
2022/07/03 02:21:49;;;;;;;;;0.25;0.25;;;;;19.67;44.15;101545.72;5051329;28;45560;-49
2022/07/03 02:24:26;;;;;;;;;1.00;1.00;;;;;19.65;44.06;101545.09;5050944;28;45557;-53
2022/07/03 02:27:02;;;;;;;;;1.00;1.00;;;;;19.65;44.46;101542.38;5050954;28;45461;-53
2022/07/03 02:29:36;;;;;;;;;1.00;1.00;;;;;19.62;44.47;101540.03;5049688;28;46051;-53
2022/07/03 02:32:12;;;;;;;;;1.25;0.00;;;;;19.60;44.74;101539.38;5051011;28;45546;-55
2022/07/03 02:34:38;;;;;;;;;1.00;1.00;;;;;19.57;44.68;101547.84;5051200;28;45505;-54
2022/07/03 02:37:12;;;;;;;;;2.00;2.00;;;;;19.41;44.55;101527.25;5051341;28;45462;-54
2022/07/03 02:39:48;;;;;;;;;2.00;2.00;;;;;19.54;44.74;101541.97;5050943;28;46366;-56
2022/07/03 02:42:39;;;;;;;;;0.00;0.00;;;;;19.53;45.03;101548.41;5050694;28;45920;-56
2022/07/03 02:45:08;;;;;;;;;0.00;0.00;;;;;19.49;45.24;101544.41;5050335;28;45460;-55
2022/07/03 02:48:02;;;;;;;;;1.00;1.00;;;;;19.51;45.29;101554.00;5054875;28;45411;-55
2022/07/03 02:50:28;;;;;;;;;1.50;1.00;;;;;19.50;45.50;101560.41;5037422;28;48208;-55
2022/07/03 02:53:24;;;;;;;;;2.00;1.00;;;;;19.49;45.20;101558.72;5063307;27;45637;-56
2022/07/03 02:55:58;;;;;;;;;3.25;0.50;;;;;19.45;45.38;101555.56;5097210;27;45410;-55
2022/07/03 02:58:39;;;;;;;;;2.25;1.00;;;;;19.45;45.58;101562.81;5097750;27;45656;-55
2022/07/03 03:01:10;;;;;;;;;2.00;1.00;;;;;19.42;45.11;101565.88;5096905;27;45424;-49
2022/07/03 03:03:43;;;;;;;;;1.00;1.00;;;;;19.36;45.59;101561.22;5097238;27;45341;-54
2022/07/03 03:06:18;;;;;;;;;0.00;0.00;;;;;19.38;45.54;101573.53;5097277;27;46427;-51
2022/07/03 03:09:05;;;;;;;;;0.50;0.50;;;;;19.35;45.82;101567.66;5097515;27;45605;-52
2022/07/03 03:11:42;;;;;;;;;2.67;0.00;;;;;19.35;45.44;101564.97;5097036;27;45472;-54
2022/07/03 03:14:14;;;;;;;;;3.00;2.00;;;;;19.31;45.91;101567.19;5095389;27;45751;-52
2022/07/03 03:16:48;;;;;;;;;1.00;1.00;;;;;19.30;45.80;101568.22;5097512;27;45554;-49
2022/07/03 03:19:14;;;;;;;;;1.00;1.00;;;;;19.29;46.07;101571.06;5096923;27;45461;-55
2022/07/03 03:22:07;;;;;;;;;1.25;1.00;;;;;19.26;46.00;101575.00;5096810;27;47100;-55
2022/07/03 03:24:33;;;;;;;;;2.00;2.00;;;;;19.25;46.07;101573.28;5096902;27;45420;-54
2022/07/03 03:26:59;;;;;;;;;0.00;0.00;;;;;19.23;45.95;101580.75;5096793;27;45381;-53
2022/07/03 03:29:25;;;;;;;;;1.00;1.00;;;;;19.19;46.30;101572.19;5096844;27;45542;-52
2022/07/03 03:31:51;;;;;;;;;2.50;1.00;;;;;19.16;46.54;101569.84;5096620;27;45449;-53
2022/07/03 03:34:18;;;;;;;;;0.33;0.33;;;;;19.16;46.26;101569.84;5096784;27;45437;-44
2022/07/03 03:36:44;;;;;;;;;1.00;1.00;;;;;19.13;46.42;101562.13;5096884;27;45506;-55
2022/07/03 03:39:09;;;;;;;;;1.00;1.00;;;;;19.11;47.07;101566.03;5096837;27;45501;-52
2022/07/03 03:41:35;;;;;;;;;1.00;0.00;;;;;19.11;46.98;101564.16;5096594;27;46183;-52
2022/07/03 03:44:00;;;;;;;;;0.50;0.50;;;;;19.08;47.18;101567.22;5096191;27;45423;-43
2022/07/03 03:46:26;;;;;;;;;0.50;0.50;;;;;19.08;46.96;101563.69;5096489;27;45832;-56
2022/07/03 03:48:51;;;;;;;;;1.00;1.00;;;;;19.07;47.01;101567.41;5095373;27;45516;-54
2022/07/03 03:51:17;;;;;;;;;1.25;1.25;;;;;19.04;47.37;101563.22;5096639;27;46280;-54
2022/07/03 03:53:42;;;;;;;;;3.00;1.25;;;;;18.93;47.35;101550.19;5096023;27;45380;-47
2022/07/03 03:56:10;;;;;;;;;1.00;1.00;;;;;18.90;47.18;101550.53;5096630;27;45165;-52
2022/07/03 03:58:38;;;;;;;;;2.33;2.33;;;;;19.02;47.18;101572.53;5096758;27;45429;-54
2022/07/03 04:01:05;;;;;;;;;1.00;1.00;;;;;19.00;47.33;101578.06;5095680;27;46323;-55
2022/07/03 04:03:32;;;;;;;;;2.00;2.00;;;;;19.02;47.41;101576.03;5096315;27;45606;-55
2022/07/03 04:05:57;;;;;;;;;1.67;1.67;;;;;18.99;47.50;101573.72;5094345;27;45385;-55
2022/07/03 04:08:24;;;;;;;;;0.50;0.50;;;;;18.96;47.28;101568.66;5096693;27;45657;-55
2022/07/03 04:10:50;;;;;;;;;1.00;1.00;;;;;18.99;47.27;101576.41;5095450;27;47186;-54
2022/07/03 04:13:16;;;;;;;;;2.33;1.00;;;;;19.00;47.43;101575.38;5096235;27;45498;-55
2022/07/03 04:15:42;;;;;;;;;1.33;1.00;;;;;18.98;47.46;101582.81;5096048;27;45464;-51
2022/07/03 04:18:08;;;;;;;;;0.33;0.33;;;;;18.97;47.65;101588.41;5096589;27;45547;-55
2022/07/03 04:20:33;;;;;;;;;1.33;1.00;;;;;18.99;47.31;101583.66;5095931;27;46105;-45
2022/07/03 04:22:59;;;;;;;;;1.33;1.00;;;;;18.93;47.29;101580.69;5111389;27;45555;-57
2022/07/03 04:25:25;;;;;;;;;0.00;0.00;;;;;18.94;47.33;101586.91;5096011;27;45505;-55
2022/07/03 04:27:51;;;;;;;;;2.67;1.67;;;;;18.99;47.17;101594.44;5096390;27;45437;-55
2022/07/03 04:30:16;;;;;;;;;2.00;0.00;;;;;18.97;47.32;101594.63;5095688;27;45400;-46
2022/07/03 04:32:42;;;;;;;;;0.67;0.67;;;;;18.96;47.22;101598.34;5096143;27;45431;-45
2022/07/03 04:35:08;;;;;;;;;1.00;1.00;;;;;18.91;47.26;101590.78;5095739;27;45395;-52
2022/07/03 04:37:34;;;;;;;;;0.67;0.67;;;;;18.93;47.46;101588.75;5096320;27;45375;-54
2022/07/03 04:39:59;;;;;;;;;1.00;1.00;;;;;18.95;47.22;101597.50;5095322;27;45415;-54
2022/07/03 04:42:24;;;;;;;;;0.33;0.33;;;;;18.93;47.34;101598.72;5095803;27;45363;-55
2022/07/03 04:44:50;;;;;;;;;2.00;1.00;;;;;18.97;47.51;101610.81;5095138;27;45534;-56
2022/07/03 04:47:15;;;;;;;;;0.00;0.00;;;;;18.96;47.27;101603.72;5095957;27;45504;-55
2022/07/03 04:49:41;;;;;;;;;1.00;1.00;;;;;18.97;46.81;101607.28;5095635;27;46293;-53
2022/07/03 04:52:07;;;;;;;;;1.00;1.00;;;;;18.95;47.20;101610.97;5095602;27;45493;-56
2022/07/03 04:54:33;;;;;;;;;0.00;0.00;;;;;18.94;47.07;101603.91;5095782;27;45512;-51
2022/07/03 04:56:59;;;;;;;;;1.00;1.00;;;;;18.97;47.29;101607.28;5095872;27;45556;-55
2022/07/03 04:59:25;;;;;;;;;1.00;1.00;;;;;18.97;47.23;101609.97;5095072;27;46180;-53
2022/07/03 05:01:51;;;;;;;;;1.00;1.00;;;;;18.96;47.07;101603.72;5095472;27;45666;-54
2022/07/03 05:04:17;;;;;;;;;1.00;1.00;;;;;18.95;47.35;101605.59;5095127;27;46344;-50
2022/07/03 05:06:43;;;;;;;;;1.00;1.00;;;;;18.95;47.27;101607.44;5094862;27;45392;-57
2022/07/03 05:09:08;;;;;;;;;3.67;2.00;;;;;18.96;47.71;101611.81;5095397;27;46223;-54
2022/07/03 05:11:35;;;;;;;;;1.00;0.00;;;;;18.83;47.66;101588.16;5094810;27;45364;-49
2022/07/03 05:14:01;;;;;;;;;0.00;0.00;;;;;18.88;47.92;101601.13;5094969;27;45366;-54
2022/07/03 05:16:26;;;;;;;;;2.00;1.00;;;;;18.98;48.55;101614.34;5095409;27;45621;-55
2022/07/03 05:18:51;;;;;;;;;1.00;1.00;;;;;18.99;48.77;101619.53;5094652;27;47130;-53
2022/07/03 05:21:17;;;;;;;;;1.00;1.00;;;;;19.00;48.77;101618.53;5095230;27;45644;-52
2022/07/03 05:23:42;;;;;;;;;0.00;0.00;;;;;19.02;48.85;101615.66;5094997;27;45560;-55
2022/07/03 05:26:08;;;;;;;;;1.50;0.25;;;;;19.04;48.85;101616.31;5094217;27;45349;-53
2022/07/03 05:28:33;;;;;;;;;1.00;1.00;;;;;19.05;49.22;101615.31;5094272;27;45942;-56
2022/07/03 05:30:58;;;;;;;;;1.33;0.00;;;;;19.04;49.42;101606.34;5094475;27;45372;-45
2022/07/03 05:33:24;;;;;;;;;1.00;1.00;;;;;19.05;49.64;101607.22;5094929;27;45626;-53
2022/07/03 05:35:49;;;;;;;;;0.33;0.33;;;;;19.10;49.35;101611.03;5094917;27;45351;-53
2022/07/03 05:39:31;;;;;;;;;0.25;0.25;;;;;19.13;49.62;101618.78;5094858;27;47170;-53
2022/07/03 05:41:00;;;;;;;;;1.00;1.00;;;;;19.18;49.49;101619.06;5094375;27;45564;-53
2022/07/03 05:43:26;;;;;;;;;1.67;0.00;;;;;19.22;49.48;101619.53;5091365;27;45530;-56
2022/07/03 05:45:51;;;;;;;;;1.33;1.33;;;;;19.24;49.57;101620.19;5095145;27;45437;-50
2022/07/03 05:48:16;;;;;;;;;1.00;1.00;;;;;19.28;49.92;101639.53;5094338;27;45550;-55
2022/07/03 05:50:42;;;;;;;;;1.00;1.00;;;;;19.29;50.02;101619.63;5094795;27;45455;-51
2022/07/03 05:53:07;;;;;;;;;2.00;1.00;;;;;19.31;50.17;101623.84;5091615;27;45472;-54
2022/07/03 05:55:32;;;;;;;;;1.75;0.50;;;;;19.32;50.55;101619.28;5094917;27;45445;-56
2022/07/03 05:57:58;;;;;;;;;3.00;1.00;;;;;19.35;50.39;101624.31;5094473;27;45481;-51
2022/07/03 06:00:23;;;;;;;;;2.00;1.00;;;;;19.38;49.99;101632.03;5094632;27;45393;-55
2022/07/03 06:02:48;;;;;;;;;2.00;1.00;;;;;19.37;50.37;101617.69;5094114;27;45707;-48
2022/07/03 06:05:14;;;;;;;;;2.50;1.00;;;;;19.43;50.70;101616.97;5094821;27;45529;-44
2022/07/03 06:07:39;;;;;;;;;0.00;0.00;;;;;19.44;50.51;101629.44;5094416;27;46162;-52
2022/07/03 06:10:05;;;;;;;;;2.25;2.25;;;;;19.54;50.39;101629.16;5094549;27;45388;-47
2022/07/03 06:12:31;;;;;;;;;0.75;0.75;;;;;19.60;50.45;101636.53;5094723;27;45453;-46
2022/07/03 06:14:56;;;;;;;;;3.00;1.00;;;;;19.64;50.49;101629.78;5094304;27;45188;-50
2022/07/03 06:17:21;;;;;;;;;0.75;0.75;;;;;19.67;50.46;101632.09;5091623;27;46683;-47
2022/07/03 06:19:47;;;;;;;;;1.00;1.00;;;;;19.69;50.50;101638.16;5096494;27;45380;-46
2022/07/03 06:22:12;;;;;;;;;1.00;1.00;;;;;19.75;50.26;101638.44;5097576;27;46442;-47
2022/07/03 06:24:37;;;;;;;;;1.00;1.00;;;;;19.77;50.51;101639.94;5098628;27;45473;-47
2022/07/03 06:27:03;;;;;;;;;1.75;1.00;;;;;19.83;50.19;101643.75;5097424;27;45517;-49
2022/07/03 06:29:29;;;;;;;;;0.00;0.00;;;;;19.86;50.25;101638.81;5096310;27;46799;-48
2022/07/03 06:31:54;;;;;;;;;1.00;1.00;;;;;20.00;50.10;101649.81;5097324;27;45520;-49
2022/07/03 06:34:20;;;;;;;;;1.00;1.00;;;;;20.00;50.40;101623.63;5098182;27;45497;-50
2022/07/03 06:36:45;;;;;;;;;1.00;1.00;;;;;20.21;49.99;101649.06;5096874;27;45472;-49
2022/07/03 06:39:10;;;;;;;;;1.00;1.00;;;;;20.38;49.60;101643.25;5097740;27;45624;-51
2022/07/03 06:41:36;;;;;;;;;2.00;1.75;;;;;20.64;49.68;101650.00;5097531;27;45928;-51
2022/07/03 06:44:01;;;;;;;;;2.25;2.25;;;;;21.03;49.14;101632.53;5097408;27;45292;-48
2022/07/03 06:46:26;;;;;;;;;4.50;2.00;;;;;21.59;48.03;101636.16;5097479;27;45485;-47
2022/07/03 06:48:52;;;;;;;;;2.00;2.00;;;;;22.28;46.99;101632.59;5097160;27;45524;-48
2022/07/03 06:51:17;;;;;;;;;2.00;2.00;;;;;23.01;45.38;101637.41;5097763;27;45644;-49
2022/07/03 06:53:43;;;;;;;;;2.00;2.00;;;;;23.74;43.47;101638.22;5097844;27;45245;-46
2022/07/03 06:56:08;;;;;;;;;3.00;3.00;;;;;24.54;42.51;101638.81;5095882;27;46195;-48
2022/07/03 06:58:33;;;;;;;;;3.50;2.00;;;;;25.26;40.52;101636.66;5097100;27;45379;-49
2022/07/03 07:00:59;;;;;;;;;2.75;2.50;;;;;26.02;39.96;101635.50;5096857;27;46294;-46
2022/07/03 07:03:24;;;;;;;;;1.75;1.75;;;;;26.75;37.81;101631.00;5097329;27;45302;-45
2022/07/03 07:05:49;;;;;;;;;2.00;2.00;;;;;27.48;37.66;101636.16;5097295;27;46134;-47
2022/07/03 07:08:15;;;;;;;;;7.00;2.00;;;;;28.13;36.01;101637.88;5096651;27;45429;-46
2022/07/03 07:10:40;;;;;;;;;1.75;1.75;;;;;28.78;34.10;101636.69;5097118;27;45442;-44
2022/07/03 07:13:06;;;;;;;;;2.50;2.50;;;;;29.46;33.90;101640.34;5097240;27;45290;-48
2022/07/03 07:15:31;;;;;;;;;4.00;2.00;;;;;30.02;34.15;101641.13;5096839;27;45544;-45
2022/07/03 07:17:56;;;;;;;;;1.75;1.00;;;;;30.57;32.29;101635.50;5096996;27;45449;-47
2022/07/03 07:20:22;;;;;;;;;3.00;2.00;;;;;31.29;30.58;101641.69;5096922;27;45423;-49
2022/07/03 07:22:47;;;;;;;;;2.75;2.00;;;;;32.40;29.00;101637.06;5097302;27;45410;-48
2022/07/03 07:25:12;;;;;;;;;1.75;1.00;;;;;34.26;25.83;101632.78;5096543;27;45999;-48
2022/07/03 07:27:38;;;;;;;;;2.75;2.75;;;;;36.11;24.22;101624.50;5096683;27;45505;-47
2022/07/03 07:30:03;;;;;;;;;3.75;2.00;;;;;37.64;22.62;101633.16;5096259;27;45520;-46
2022/07/03 07:32:29;;;;;;;;;1.00;1.00;;;;;38.79;20.51;101638.44;5096706;27;45631;-47
2022/07/03 07:34:55;;;;;;;;;4.00;2.00;;;;;39.84;20.25;101629.50;5096551;27;45397;-49
2022/07/03 07:37:20;;;;;;;;;0.25;0.25;;;;;40.88;18.54;101628.78;5096414;27;45481;-47
2022/07/03 07:39:45;;;;;;;;;1.00;1.00;;;;;42.00;17.35;101633.16;5096672;27;45425;-52
2022/07/03 07:42:11;;;;;;;;;1.25;1.25;;;;;42.82;18.74;101624.28;5097282;27;45422;-49
2022/07/03 07:44:36;;;;;;;;;3.00;2.00;;;;;43.29;17.14;101629.56;5096218;27;46364;-46
2022/07/03 07:47:02;;;;;;;;;0.00;0.00;;;;;43.73;16.67;101627.81;5095930;27;45445;-44
2022/07/03 07:49:27;;;;;;;;;0.25;0.25;;;;;44.22;15.70;101627.78;5096644;27;45574;-48
2022/07/03 07:51:52;;;;;;;;;1.00;1.00;;;;;44.85;15.03;101626.41;5096928;27;45425;-48
2022/07/03 07:54:18;;;;;;;;;2.00;1.00;;;;;45.40;14.61;101630.25;5095976;27;45988;-47
2022/07/03 07:56:43;;;;;;;;;3.00;1.00;;;;;45.94;15.07;101626.78;5096549;27;45515;-49
2022/07/03 07:59:08;;;;;;;;;1.00;1.00;;;;;46.18;13.74;101632.16;5096241;27;45412;-54
2022/07/03 08:07:02;;;;;;;;;3.00;2.00;;;;;47.25;13.69;101620.19;5095710;27;45458;-54
2022/07/03 08:09:27;;;;;;;;;2.00;2.00;;;;;47.39;12.88;101628.06;5096297;27;45426;-52
2022/07/03 08:11:53;;;;;;;;;1.50;1.50;;;;;47.80;12.55;101630.34;5096507;27;45458;-52
2022/07/03 08:14:18;;;;;;;;;1.50;1.00;;;;;48.03;12.65;101622.63;5096276;27;46253;-53
2022/07/03 08:16:45;;;;;;;;;5.00;2.75;;;;;48.58;12.26;101639.03;5095754;27;45540;-49
2022/07/03 08:19:11;;;;;;;;;2.40;2.40;;;;;48.84;11.75;101629.66;5096189;27;45283;-49
2022/07/03 08:21:36;;;;;;;;;0.75;0.75;;;;;49.18;11.59;101627.56;5096159;27;45270;-47
2022/07/03 08:24:02;;;;;;;;;1.75;1.75;;;;;49.40;12.35;101620.91;5095909;27;45709;-55
2022/07/03 08:26:27;;;;;;;;;2.00;1.25;;;;;49.60;11.41;101620.63;5095852;27;45319;-51
2022/07/03 08:28:52;;;;;;;;;1.00;1.00;;;;;49.83;11.60;101626.88;5095947;27;45579;-53
2022/07/03 08:31:18;;;;;;;;;1.00;1.00;;;;;50.20;10.58;101625.88;5096171;27;45719;-56
2022/07/03 08:33:43;;;;;;;;;1.50;1.50;;;;;50.49;10.97;101632.44;5094313;27;45987;-54
2022/07/03 08:36:08;;;;;;;;;0.00;0.00;;;;;50.90;11.92;101632.16;5095598;27;45496;-52
2022/07/03 08:38:34;;;;;;;;;1.25;1.00;;;;;51.12;11.08;101630.97;5096107;27;45384;-51
2022/07/03 08:41:00;;;;;;;;;1.75;1.75;;;;;51.28;10.72;101632.59;5095481;27;45321;-55
2022/07/03 08:43:26;;;;;;;;;2.40;1.80;;;;;51.38;10.38;101631.78;5094924;27;45347;-47
2022/07/03 08:45:53;;;;;;;;;2.75;1.00;;;;;51.59;10.92;101631.78;5095478;27;45484;-53
2022/07/03 08:48:21;;;;;;;;;2.00;0.00;;;;;51.28;10.39;101619.22;5095811;27;46039;-55
2022/07/03 08:50:47;;;;;;;;;0.80;0.80;;;;;50.66;10.17;101628.88;5095260;27;45324;-55
2022/07/03 08:53:12;;;;;;;;;1.75;1.75;;;;;51.02;10.96;101620.41;5095786;27;46019;-55
2022/07/03 08:55:38;;;;;;;;;2.00;0.75;;;;;50.77;9.94;101619.56;5095608;27;45644;-54
2022/07/03 08:58:05;;;;;;;;;3.00;1.50;;;;;49.67;10.89;101623.53;5095280;27;45411;-48
2022/07/03 09:00:32;;;;;;;;;1.40;1.40;;;;;50.21;10.89;101624.66;5095648;27;45400;-51
2022/07/03 09:02:59;;;;;;;;;1.80;1.80;;;;;48.74;11.52;101622.69;5094845;27;45584;-49
2022/07/03 09:05:25;;;;;;;;;3.00;2.00;;;;;47.05;12.62;101626.25;5095497;27;45507;-49
2022/07/03 09:07:52;;;;;;;;;2.00;2.00;;;;;48.08;11.91;101627.91;5095075;27;45451;-50
2022/07/03 09:10:18;;;;;;;;;4.20;1.80;;;;;49.08;12.27;101626.25;5095731;27;45316;-46
2022/07/03 09:12:45;;;;;;;;;1.20;1.20;;;;;49.30;10.98;101623.63;5094521;27;46223;-47
2022/07/03 09:15:12;;;;;;;;;1.80;1.80;;;;;48.24;12.06;101617.25;5094844;27;45608;-48
2022/07/03 09:17:37;;;;;;;;;1.20;1.20;;;;;48.67;12.03;101608.47;5095185;27;45920;-52
2022/07/03 09:20:05;;;;;;;;;2.00;2.00;;;;;49.28;11.14;101615.56;5095393;27;45564;-50
2022/07/03 09:22:34;;;;;;;;;2.00;2.00;;;;;48.36;11.71;101615.38;5094502;27;45547;-55
2022/07/03 09:25:16;;;;;;;;;1.40;1.40;;;;;48.77;12.21;101612.66;5094896;27;45426;-48
2022/07/03 09:27:52;;;;;;;;;0.60;0.60;;;;;49.32;11.34;101621.25;5095151;27;45394;-57
2022/07/03 09:30:19;;;;;;;;;1.00;1.00;;;;;48.28;11.61;101608.03;5095636;27;45447;-48
2022/07/03 09:32:47;;;;;;;;;2.00;2.00;;;;;48.79;12.31;101622.34;5094200;27;46223;-53
2022/07/03 09:35:14;;;;;;;;;1.40;1.40;;;;;49.62;11.00;101612.59;5094986;27;45406;-50
2022/07/03 09:37:40;;;;;;;;;1.60;0.40;;;;;50.24;11.34;101609.72;5095139;27;45545;-50
2022/07/03 09:40:07;;;;;;;;;0.80;0.80;;;;;50.66;10.81;101617.53;5094975;27;45407;-49
2022/07/03 09:42:32;;;;;;;;;0.00;0.00;;;;;50.89;10.99;101611.50;5094674;27;46566;-47
2022/07/03 09:44:57;;;;;;;;;0.75;0.75;;;;;49.01;11.09;101617.72;5094547;27;45388;-56
2022/07/03 09:47:25;;;;;;;;;1.50;1.50;;;;;49.56;11.30;101614.16;5094633;27;45779;-51
2022/07/03 09:49:52;;;;;;;;;2.20;2.20;;;;;47.87;12.22;101605.03;5094624;27;45387;-48
2022/07/03 09:52:38;;;;;;;;;2.60;1.80;;;;;48.10;12.32;101619.09;5093566;27;46730;-56
2022/07/03 09:55:09;;;;;;;;;1.40;1.40;;;;;49.12;11.18;101617.84;5098161;27;45374;-50
2022/07/03 09:57:42;;;;;;;;;1.00;1.00;;;;;49.67;10.88;101615.03;5098387;27;45534;-53
2022/07/03 10:00:25;;;;;;;;;1.00;1.00;;;;;47.24;12.42;101624.19;5098179;27;45734;-54
2022/07/03 10:02:53;;;;;;;;;2.60;1.20;;;;;44.31;14.87;101622.03;5098028;27;45388;-51
2022/07/03 10:05:20;;;;;;;;;0.80;0.80;;;;;42.00;15.95;101630.34;5098477;27;45447;-53
2022/07/03 10:07:54;;;;;;;;;0.00;0.00;;;;;41.63;16.01;101629.22;5097806;27;46306;-48
2022/07/03 10:10:21;;;;;;;;;2.00;2.00;;;;;40.84;17.19;101628.63;5098294;27;45466;-56
2022/07/03 10:12:51;;;;;;;;;3.00;1.00;;;;;39.71;18.32;101618.50;5097884;27;46149;-52
2022/07/03 10:15:18;;;;;;;;;2.80;1.00;;;;;39.71;18.72;101630.44;5098367;27;45364;-54
2022/07/03 10:17:47;;;;;;;;;1.60;1.60;;;;;38.50;19.50;101607.41;5097617;27;46377;-50
2022/07/03 10:20:14;;;;;;;;;2.80;2.80;;;;;39.62;18.98;101622.03;5098488;27;45576;-50
2022/07/03 10:22:42;;;;;;;;;1.20;1.20;;;;;41.06;17.26;101607.28;5097680;27;46520;-54
2022/07/03 10:25:09;;;;;;;;;3.20;2.40;;;;;42.29;16.65;101626.72;5097530;27;45363;-56
2022/07/03 10:27:36;;;;;;;;;1.80;1.80;;;;;41.44;16.82;101626.88;5097647;27;45374;-55
2022/07/03 10:30:02;;;;;;;;;2.00;2.00;;;;;39.76;18.09;101607.19;5097742;27;45468;-53
2022/07/03 10:32:29;;;;;;;;;2.20;2.00;;;;;38.42;19.44;101628.44;5097391;27;47809;-56
2022/07/03 10:34:54;;;;;;;;;1.00;0.00;;;;;37.24;21.25;101634.69;5097438;27;45438;-52
2022/07/03 10:37:21;;;;;;;;;2.00;2.00;;;;;36.30;21.58;101630.88;5097395;27;45643;-57
2022/07/03 10:46:12;;;;;;;;;28.00;27.40;;;;;34.34;24.34;101643.19;5097614;27;45565;-49
2022/07/03 10:48:56;;;;;;;;;9.40;8.80;;;;;34.69;23.63;101631.16;5097388;27;45407;-53
2022/07/03 10:51:23;;;;;;;;;20.00;18.00;;;;;35.05;23.51;101638.34;5097981;27;45485;-50
2022/07/03 10:53:48;;;;;;;;;14.00;10.20;;;;;34.69;24.14;101635.84;5096927;27;45479;-47
2022/07/03 10:56:14;;;;;;;;;9.25;7.75;;;;;34.23;23.97;101622.28;5097435;27;45688;-52
2022/07/03 10:58:59;;;;;;;;;5.00;4.25;;;;;34.16;23.64;101639.16;5097806;27;45893;-53
2022/07/03 11:01:33;;;;;;;;;2.80;2.80;;;;;33.86;24.34;101634.56;5097571;27;45595;-52
2022/07/03 11:04:00;;;;;;;;;3.00;3.00;;;;;33.45;25.30;101647.66;5096764;27;46092;-49
2022/07/03 11:07:03;;;;;;;;;5.60;5.60;;;;;32.77;26.15;101643.19;5096671;27;45446;-52
2022/07/03 11:09:29;;;;;;;;;3.00;1.80;;;;;32.37;26.53;101645.84;5074488;28;45222;-51
2022/07/03 11:11:54;;;;;;;;;5.00;5.00;;;;;32.12;26.74;101643.84;5074415;28;45392;-50
2022/07/03 11:14:27;;;;;;;;;3.75;3.75;;;;;31.84;27.26;101645.09;5074245;28;47180;-53
2022/07/03 11:17:19;;;;;;;;;3.80;3.80;;;;;31.64;27.15;101634.75;5057390;27;45515;-49
2022/07/03 11:20:23;;;;;;;;;3.40;3.40;;;;;31.49;27.42;101636.31;5074449;28;45517;-50
2022/07/03 11:22:53;;;;;;;;;3.60;3.60;;;;;31.16;27.52;101642.09;5074507;27;46229;-51
2022/07/03 11:25:18;;;;;;;;;5.40;3.80;;;;;30.88;27.81;101641.31;5074027;28;45464;-47
2022/07/03 11:27:44;;;;;;;;;4.00;4.00;;;;;30.51;28.37;101639.28;5073596;27;45386;-48
2022/07/03 11:30:12;;;;;;;;;5.50;4.00;;;;;30.16;29.70;101630.63;5057469;28;45451;-50
2022/07/03 11:32:51;;;;;;;;;5.20;4.80;;;;;29.85;29.02;101634.88;5073873;28;45575;-52
2022/07/03 11:35:48;;;;;;;;;5.60;5.60;;;;;29.80;29.42;101632.91;5073868;28;46196;-48
2022/07/03 11:38:20;;;;;;;;;4.80;4.00;;;;;29.86;29.89;101631.03;5068976;28;45460;-49
2022/07/03 11:40:48;;;;;;;;;7.20;5.40;;;;;29.86;30.26;101645.59;5074222;28;45357;-51
2022/07/03 11:43:13;;;;;;;;;5.00;5.00;;;;;29.75;29.98;101628.19;5074452;28;45792;-51
2022/07/03 11:45:40;;;;;;;;;4.75;4.50;;;;;29.78;30.10;101637.78;5078543;27;45480;-52